sensor_id;sensor_type;location;lat;lon;timestamp;temperature;humidity
38488;DHT22;57384;51.986;4.458;2023-06-04T00:00:35;16.90;42.70
38488;DHT22;57384;51.986;4.458;2023-06-04T00:03:19;16.90;42.70
38488;DHT22;57384;51.986;4.458;2023-06-04T00:06:03;16.80;42.80
38488;DHT22;57384;51.986;4.458;2023-06-04T00:08:47;16.80;42.90
38488;DHT22;57384;51.986;4.458;2023-06-04T00:11:32;16.70;42.90
38488;DHT22;57384;51.986;4.458;2023-06-04T00:14:16;16.70;42.90
38488;DHT22;57384;51.986;4.458;2023-06-04T00:17:00;16.70;43.00
38488;DHT22;57384;51.986;4.458;2023-06-04T00:19:44;16.70;43.00
38488;DHT22;57384;51.986;4.458;2023-06-04T00:22:29;16.60;43.10
38488;DHT22;57384;51.986;4.458;2023-06-04T00:25:13;16.60;43.10
38488;DHT22;57384;51.986;4.458;2023-06-04T00:27:58;16.50;43.10
38488;DHT22;57384;51.986;4.458;2023-06-04T00:30:42;16.50;43.20
38488;DHT22;57384;51.986;4.458;2023-06-04T00:33:29;16.50;43.30
38488;DHT22;57384;51.986;4.458;2023-06-04T00:36:13;16.50;43.30
38488;DHT22;57384;51.986;4.458;2023-06-04T00:38:58;16.50;43.40
38488;DHT22;57384;51.986;4.458;2023-06-04T00:41:42;16.40;43.40
38488;DHT22;57384;51.986;4.458;2023-06-04T00:44:26;16.30;43.50
38488;DHT22;57384;51.986;4.458;2023-06-04T00:47:14;16.30;43.50
38488;DHT22;57384;51.986;4.458;2023-06-04T00:49:59;16.30;43.60
38488;DHT22;57384;51.986;4.458;2023-06-04T00:52:43;16.20;43.70
38488;DHT22;57384;51.986;4.458;2023-06-04T00:55:27;16.20;43.70
38488;DHT22;57384;51.986;4.458;2023-06-04T00:58:11;16.10;43.80
38488;DHT22;57384;51.986;4.458;2023-06-04T01:00:56;16.10;43.80
38488;DHT22;57384;51.986;4.458;2023-06-04T01:03:41;16.10;43.90
38488;DHT22;57384;51.986;4.458;2023-06-04T01:09:16;16.00;44.00
38488;DHT22;57384;51.986;4.458;2023-06-04T01:12:05;16.00;44.10
38488;DHT22;57384;51.986;4.458;2023-06-04T01:14:50;15.90;44.10
38488;DHT22;57384;51.986;4.458;2023-06-04T01:17:41;15.90;44.20
38488;DHT22;57384;51.986;4.458;2023-06-04T01:20:31;15.90;44.20
38488;DHT22;57384;51.986;4.458;2023-06-04T01:26:08;15.80;44.20
38488;DHT22;57384;51.986;4.458;2023-06-04T01:28:53;15.80;44.30
38488;DHT22;57384;51.986;4.458;2023-06-04T01:31:37;15.70;44.30
38488;DHT22;57384;51.986;4.458;2023-06-04T01:34:22;15.70;44.40
38488;DHT22;57384;51.986;4.458;2023-06-04T01:37:06;15.60;44.40
38488;DHT22;57384;51.986;4.458;2023-06-04T01:39:50;15.60;44.50
38488;DHT22;57384;51.986;4.458;2023-06-04T01:42:34;15.60;44.50
38488;DHT22;57384;51.986;4.458;2023-06-04T01:45:20;15.60;44.50
38488;DHT22;57384;51.986;4.458;2023-06-04T01:48:04;15.50;44.50
38488;DHT22;57384;51.986;4.458;2023-06-04T01:50:49;15.50;44.70
38488;DHT22;57384;51.986;4.458;2023-06-04T01:53:33;15.40;44.70
38488;DHT22;57384;51.986;4.458;2023-06-04T01:56:17;15.40;44.70
38488;DHT22;57384;51.986;4.458;2023-06-04T01:59:01;15.40;44.80
38488;DHT22;57384;51.986;4.458;2023-06-04T02:01:45;15.30;44.80
38488;DHT22;57384;51.986;4.458;2023-06-04T02:04:30;15.30;44.80
38488;DHT22;57384;51.986;4.458;2023-06-04T02:07:14;15.30;44.80
38488;DHT22;57384;51.986;4.458;2023-06-04T02:09:58;15.20;44.80
38488;DHT22;57384;51.986;4.458;2023-06-04T02:12:56;15.20;44.90
38488;DHT22;57384;51.986;4.458;2023-06-04T02:15:43;15.20;45.00
38488;DHT22;57384;51.986;4.458;2023-06-04T02:18:27;15.10;45.00
38488;DHT22;57384;51.986;4.458;2023-06-04T02:21:11;15.20;45.10
38488;DHT22;57384;51.986;4.458;2023-06-04T02:23:56;15.10;45.10
38488;DHT22;57384;51.986;4.458;2023-06-04T02:26:40;15.10;45.10
38488;DHT22;57384;51.986;4.458;2023-06-04T02:29:25;15.00;45.10
38488;DHT22;57384;51.986;4.458;2023-06-04T02:32:09;15.00;45.10
38488;DHT22;57384;51.986;4.458;2023-06-04T02:34:54;15.00;45.20
38488;DHT22;57384;51.986;4.458;2023-06-04T02:37:38;14.90;45.20
38488;DHT22;57384;51.986;4.458;2023-06-04T02:40:22;14.90;45.20
38488;DHT22;57384;51.986;4.458;2023-06-04T02:43:06;14.80;45.20
38488;DHT22;57384;51.986;4.458;2023-06-04T02:45:51;14.80;45.20
38488;DHT22;57384;51.986;4.458;2023-06-04T02:48:35;14.80;45.30
38488;DHT22;57384;51.986;4.458;2023-06-04T02:51:19;14.80;45.40
38488;DHT22;57384;51.986;4.458;2023-06-04T02:54:03;14.80;45.40
38488;DHT22;57384;51.986;4.458;2023-06-04T02:56:47;14.70;45.40
38488;DHT22;57384;51.986;4.458;2023-06-04T02:59:35;14.70;45.40
38488;DHT22;57384;51.986;4.458;2023-06-04T03:02:19;14.60;45.40
38488;DHT22;57384;51.986;4.458;2023-06-04T03:05:03;14.60;45.50
38488;DHT22;57384;51.986;4.458;2023-06-04T03:07:47;14.60;45.50
38488;DHT22;57384;51.986;4.458;2023-06-04T03:10:31;14.50;45.50
38488;DHT22;57384;51.986;4.458;2023-06-04T03:13:16;14.50;45.60
38488;DHT22;57384;51.986;4.458;2023-06-04T03:16:00;14.50;45.60
38488;DHT22;57384;51.986;4.458;2023-06-04T03:18:44;14.40;45.60
38488;DHT22;57384;51.986;4.458;2023-06-04T03:21:28;14.40;45.60
38488;DHT22;57384;51.986;4.458;2023-06-04T03:24:13;14.40;45.60
38488;DHT22;57384;51.986;4.458;2023-06-04T03:26:57;14.40;45.70
38488;DHT22;57384;51.986;4.458;2023-06-04T03:29:43;14.30;45.60
38488;DHT22;57384;51.986;4.458;2023-06-04T03:32:27;14.30;45.70
38488;DHT22;57384;51.986;4.458;2023-06-04T03:35:11;14.30;45.70
38488;DHT22;57384;51.986;4.458;2023-06-04T03:37:57;14.30;45.70
38488;DHT22;57384;51.986;4.458;2023-06-04T03:40:42;14.30;45.80
38488;DHT22;57384;51.986;4.458;2023-06-04T03:43:26;14.20;45.70
38488;DHT22;57384;51.986;4.458;2023-06-04T03:46:10;14.20;45.80
38488;DHT22;57384;51.986;4.458;2023-06-04T03:48:55;14.20;45.80
38488;DHT22;57384;51.986;4.458;2023-06-04T03:51:39;14.20;45.80
38488;DHT22;57384;51.986;4.458;2023-06-04T03:54:24;14.10;45.80
38488;DHT22;57384;51.986;4.458;2023-06-04T03:57:08;14.20;45.90
38488;DHT22;57384;51.986;4.458;2023-06-04T03:59:52;14.00;45.80
38488;DHT22;57384;51.986;4.458;2023-06-04T04:02:36;14.00;45.80
38488;DHT22;57384;51.986;4.458;2023-06-04T04:05:21;14.00;45.90
38488;DHT22;57384;51.986;4.458;2023-06-04T04:08:05;14.00;45.90
38488;DHT22;57384;51.986;4.458;2023-06-04T04:10:49;14.00;45.90
38488;DHT22;57384;51.986;4.458;2023-06-04T04:13:33;14.00;46.00
38488;DHT22;57384;51.986;4.458;2023-06-04T04:16:18;13.90;46.00
38488;DHT22;57384;51.986;4.458;2023-06-04T04:19:02;14.00;46.00
38488;DHT22;57384;51.986;4.458;2023-06-04T04:21:47;13.90;46.00
38488;DHT22;57384;51.986;4.458;2023-06-04T04:24:34;13.90;46.00
38488;DHT22;57384;51.986;4.458;2023-06-04T04:27:18;13.90;46.00
38488;DHT22;57384;51.986;4.458;2023-06-04T04:30:03;13.90;46.10
38488;DHT22;57384;51.986;4.458;2023-06-04T04:32:47;13.90;46.10
38488;DHT22;57384;51.986;4.458;2023-06-04T04:35:31;13.90;46.10
38488;DHT22;57384;51.986;4.458;2023-06-04T04:38:16;13.90;46.10
38488;DHT22;57384;51.986;4.458;2023-06-04T04:41:00;13.90;46.20
38488;DHT22;57384;51.986;4.458;2023-06-04T04:43:44;13.90;46.20
38488;DHT22;57384;51.986;4.458;2023-06-04T04:46:28;13.90;46.20
38488;DHT22;57384;51.986;4.458;2023-06-04T04:49:12;13.90;46.20
38488;DHT22;57384;51.986;4.458;2023-06-04T04:51:57;13.90;46.20
38488;DHT22;57384;51.986;4.458;2023-06-04T04:54:41;13.90;46.20
38488;DHT22;57384;51.986;4.458;2023-06-04T04:57:25;13.90;46.20
38488;DHT22;57384;51.986;4.458;2023-06-04T05:00:10;13.90;46.30
38488;DHT22;57384;51.986;4.458;2023-06-04T05:02:54;13.90;46.20
38488;DHT22;57384;51.986;4.458;2023-06-04T05:05:38;14.00;46.30
38488;DHT22;57384;51.986;4.458;2023-06-04T05:08:22;14.00;46.30
38488;DHT22;57384;51.986;4.458;2023-06-04T05:14:43;14.00;46.20
38488;DHT22;57384;51.986;4.458;2023-06-04T05:17:31;14.10;46.30
38488;DHT22;57384;51.986;4.458;2023-06-04T05:20:15;14.10;46.20
38488;DHT22;57384;51.986;4.458;2023-06-04T05:23:03;14.20;46.40
38488;DHT22;57384;51.986;4.458;2023-06-04T05:25:56;14.20;46.40
38488;DHT22;57384;51.986;4.458;2023-06-04T05:31:34;14.40;46.50
38488;DHT22;57384;51.986;4.458;2023-06-04T05:34:26;14.40;46.40
38488;DHT22;57384;51.986;4.458;2023-06-04T05:37:18;14.50;46.40
38488;DHT22;57384;51.986;4.458;2023-06-04T05:40:02;14.50;46.40
38488;DHT22;57384;51.986;4.458;2023-06-04T05:42:54;14.70;46.40
38488;DHT22;57384;51.986;4.458;2023-06-04T05:45:38;14.80;46.30
38488;DHT22;57384;51.986;4.458;2023-06-04T05:48:24;14.90;46.20
38488;DHT22;57384;51.986;4.458;2023-06-04T05:51:09;15.00;46.20
38488;DHT22;57384;51.986;4.458;2023-06-04T05:53:53;15.20;46.20
38488;DHT22;57384;51.986;4.458;2023-06-04T05:56:37;15.20;46.10
38488;DHT22;57384;51.986;4.458;2023-06-04T05:59:22;15.40;46.20
38488;DHT22;57384;51.986;4.458;2023-06-04T06:02:06;15.50;46.20
38488;DHT22;57384;51.986;4.458;2023-06-04T06:04:50;15.60;46.00
38488;DHT22;57384;51.986;4.458;2023-06-04T06:07:35;15.70;46.00
38488;DHT22;57384;51.986;4.458;2023-06-04T06:10:19;15.90;46.10
38488;DHT22;57384;51.986;4.458;2023-06-04T06:13:03;16.00;46.10
38488;DHT22;57384;51.986;4.458;2023-06-04T06:15:47;16.10;46.10
38488;DHT22;57384;51.986;4.458;2023-06-04T06:18:32;16.20;46.20
38488;DHT22;57384;51.986;4.458;2023-06-04T06:21:16;16.20;46.10
38488;DHT22;57384;51.986;4.458;2023-06-04T06:24:03;16.40;46.10
38488;DHT22;57384;51.986;4.458;2023-06-04T06:26:47;16.50;46.20
38488;DHT22;57384;51.986;4.458;2023-06-04T06:29:31;16.60;46.10
38488;DHT22;57384;51.986;4.458;2023-06-04T06:32:18;16.70;46.00
38488;DHT22;57384;51.986;4.458;2023-06-04T06:35:03;16.80;46.00
38488;DHT22;57384;51.986;4.458;2023-06-04T06:37:47;17.00;46.00
38488;DHT22;57384;51.986;4.458;2023-06-04T06:40:31;17.10;45.90
38488;DHT22;57384;51.986;4.458;2023-06-04T06:43:15;17.20;45.80
38488;DHT22;57384;51.986;4.458;2023-06-04T06:46:02;17.30;45.80
38488;DHT22;57384;51.986;4.458;2023-06-04T06:48:46;17.40;45.70
38488;DHT22;57384;51.986;4.458;2023-06-04T06:51:36;17.50;45.70
38488;DHT22;57384;51.986;4.458;2023-06-04T06:54:20;17.60;45.70
38488;DHT22;57384;51.986;4.458;2023-06-04T06:57:04;17.70;45.60
38488;DHT22;57384;51.986;4.458;2023-06-04T06:59:52;17.70;45.50
38488;DHT22;57384;51.986;4.458;2023-06-04T07:02:36;17.90;45.50
38488;DHT22;57384;51.986;4.458;2023-06-04T07:05:29;18.00;45.40
38488;DHT22;57384;51.986;4.458;2023-06-04T07:08:19;18.10;45.40
38488;DHT22;57384;51.986;4.458;2023-06-04T07:11:03;18.20;45.30
38488;DHT22;57384;51.986;4.458;2023-06-04T07:17:05;18.40;45.00
38488;DHT22;57384;51.986;4.458;2023-06-04T07:19:55;18.60;45.00
38488;DHT22;57384;51.986;4.458;2023-06-04T07:22:40;18.70;44.90
38488;DHT22;57384;51.986;4.458;2023-06-04T07:25:31;18.80;44.70
38488;DHT22;57384;51.986;4.458;2023-06-04T07:28:22;19.00;44.60
38488;DHT22;57384;51.986;4.458;2023-06-04T07:31:24;19.10;44.50
38488;DHT22;57384;51.986;4.458;2023-06-04T07:37:15;19.40;44.30
38488;DHT22;57384;51.986;4.458;2023-06-04T07:40:07;19.60;44.20
38488;DHT22;57384;51.986;4.458;2023-06-04T07:42:53;19.80;44.10
38488;DHT22;57384;51.986;4.458;2023-06-04T07:45:40;19.90;43.90
38488;DHT22;57384;51.986;4.458;2023-06-04T07:51:25;20.30;43.70
38488;DHT22;57384;51.986;4.458;2023-06-04T07:54:17;20.50;43.60
38488;DHT22;57384;51.986;4.458;2023-06-04T07:57:07;20.70;43.50
38488;DHT22;57384;51.986;4.458;2023-06-04T07:59:54;21.00;43.40
38488;DHT22;57384;51.986;4.458;2023-06-04T08:02:41;21.20;43.40
38488;DHT22;57384;51.986;4.458;2023-06-04T08:05:31;21.30;43.10
38488;DHT22;57384;51.986;4.458;2023-06-04T08:08:33;21.50;43.10
38488;DHT22;57384;51.986;4.458;2023-06-04T08:11:26;21.70;43.00
38488;DHT22;57384;51.986;4.458;2023-06-04T08:14:10;21.90;42.90
38488;DHT22;57384;51.986;4.458;2023-06-04T08:16:54;22.10;42.90
38488;DHT22;57384;51.986;4.458;2023-06-04T08:19:38;22.30;43.00
38488;DHT22;57384;51.986;4.458;2023-06-04T08:22:24;22.60;43.00
38488;DHT22;57384;51.986;4.458;2023-06-04T08:25:08;22.70;42.70
38488;DHT22;57384;51.986;4.458;2023-06-04T08:27:54;22.90;42.60
38488;DHT22;57384;51.986;4.458;2023-06-04T08:30:39;23.10;42.70
38488;DHT22;57384;51.986;4.458;2023-06-04T08:33:23;23.30;42.60
38488;DHT22;57384;51.986;4.458;2023-06-04T08:36:13;23.40;42.40
38488;DHT22;57384;51.986;4.458;2023-06-04T08:39:15;23.60;42.40
38488;DHT22;57384;51.986;4.458;2023-06-04T08:42:22;23.70;42.30
38488;DHT22;57384;51.986;4.458;2023-06-04T08:45:04;23.90;42.20
38488;DHT22;57384;51.986;4.458;2023-06-04T08:47:51;24.10;42.20
38488;DHT22;57384;51.986;4.458;2023-06-04T08:50:38;24.30;42.20
38488;DHT22;57384;51.986;4.458;2023-06-04T08:53:23;24.50;42.20
38488;DHT22;57384;51.986;4.458;2023-06-04T08:56:07;24.70;42.00
38488;DHT22;57384;51.986;4.458;2023-06-04T08:58:56;24.80;41.90
38488;DHT22;57384;51.986;4.458;2023-06-04T09:01:45;25.00;41.90
38488;DHT22;57384;51.986;4.458;2023-06-04T09:04:32;25.10;41.70
38488;DHT22;57384;51.986;4.458;2023-06-04T09:07:19;25.20;41.60
38488;DHT22;57384;51.986;4.458;2023-06-04T09:10:04;25.30;41.60
38488;DHT22;57384;51.986;4.458;2023-06-04T09:12:50;25.60;41.60
38488;DHT22;57384;51.986;4.458;2023-06-04T09:15:35;25.70;41.50
38488;DHT22;57384;51.986;4.458;2023-06-04T09:18:26;25.80;41.50
38488;DHT22;57384;51.986;4.458;2023-06-04T09:21:11;25.90;41.40
38488;DHT22;57384;51.986;4.458;2023-06-04T09:23:58;26.10;41.40
38488;DHT22;57384;51.986;4.458;2023-06-04T09:26:46;26.30;41.40
38488;DHT22;57384;51.986;4.458;2023-06-04T09:29:30;26.40;41.30
38488;DHT22;57384;51.986;4.458;2023-06-04T09:32:15;26.60;41.30
38488;DHT22;57384;51.986;4.458;2023-06-04T09:35:11;26.70;41.10
38488;DHT22;57384;51.986;4.458;2023-06-04T09:37:56;26.90;41.00
38488;DHT22;57384;51.986;4.458;2023-06-04T09:40:40;27.00;40.70
38488;DHT22;57384;51.986;4.458;2023-06-04T09:43:24;27.00;40.60
38488;DHT22;57384;51.986;4.458;2023-06-04T09:46:12;27.20;40.70
38488;DHT22;57384;51.986;4.458;2023-06-04T09:49:02;27.40;40.70
38488;DHT22;57384;51.986;4.458;2023-06-04T09:51:47;27.50;40.70
38488;DHT22;57384;51.986;4.458;2023-06-04T09:54:40;27.60;40.50
38488;DHT22;57384;51.986;4.458;2023-06-04T09:57:25;27.70;40.50
38488;DHT22;57384;51.986;4.458;2023-06-04T10:00:09;27.90;40.40
38488;DHT22;57384;51.986;4.458;2023-06-04T10:02:56;28.00;40.30
38488;DHT22;57384;51.986;4.458;2023-06-04T10:05:39;28.10;40.20
38488;DHT22;57384;51.986;4.458;2023-06-04T10:08:24;28.20;40.10
38488;DHT22;57384;51.986;4.458;2023-06-04T10:11:10;28.30;40.10
38488;DHT22;57384;51.986;4.458;2023-06-04T10:17:08;28.50;39.50
38488;DHT22;57384;51.986;4.458;2023-06-04T10:23:02;28.80;39.40
38488;DHT22;57384;51.986;4.458;2023-06-04T10:32:04;29.00;39.20
38488;DHT22;57384;51.986;4.458;2023-06-04T10:34:48;29.10;39.00
38488;DHT22;57384;51.986;4.458;2023-06-04T10:37:36;29.10;38.80
38488;DHT22;57384;51.986;4.458;2023-06-04T10:40:20;29.20;38.90
38488;DHT22;57384;51.986;4.458;2023-06-04T10:43:14;29.40;38.80
38488;DHT22;57384;51.986;4.458;2023-06-04T10:46:14;29.40;38.70
38488;DHT22;57384;51.986;4.458;2023-06-04T10:49:08;29.60;38.70
38488;DHT22;57384;51.986;4.458;2023-06-04T10:51:52;29.70;38.70
38488;DHT22;57384;51.986;4.458;2023-06-04T10:54:37;29.80;38.60
38488;DHT22;57384;51.986;4.458;2023-06-04T10:57:21;29.90;38.50
38488;DHT22;57384;51.986;4.458;2023-06-04T11:00:05;30.00;38.30
38488;DHT22;57384;51.986;4.458;2023-06-04T11:02:50;30.00;38.20
38488;DHT22;57384;51.986;4.458;2023-06-04T11:08:26;30.10;37.90
38488;DHT22;57384;51.986;4.458;2023-06-04T11:11:11;30.20;37.90
38488;DHT22;57384;51.986;4.458;2023-06-04T11:13:55;30.20;37.50
38488;DHT22;57384;51.986;4.458;2023-06-04T11:16:39;30.20;37.30
38488;DHT22;57384;51.986;4.458;2023-06-04T11:19:23;30.30;37.30
38488;DHT22;57384;51.986;4.458;2023-06-04T11:22:11;30.30;37.20
38488;DHT22;57384;51.986;4.458;2023-06-04T11:24:56;30.40;37.10
38488;DHT22;57384;51.986;4.458;2023-06-04T11:27:40;30.50;37.10
38488;DHT22;57384;51.986;4.458;2023-06-04T11:30:25;30.70;37.10
38488;DHT22;57384;51.986;4.458;2023-06-04T11:33:09;30.70;37.00
38488;DHT22;57384;51.986;4.458;2023-06-04T11:35:53;30.90;37.00
38488;DHT22;57384;51.986;4.458;2023-06-04T11:38:37;31.00;36.90
38488;DHT22;57384;51.986;4.458;2023-06-04T11:41:31;31.00;36.80
38488;DHT22;57384;51.986;4.458;2023-06-04T11:44:17;31.20;36.80
38488;DHT22;57384;51.986;4.458;2023-06-04T11:47:07;31.30;36.70
38488;DHT22;57384;51.986;4.458;2023-06-04T11:50:04;31.40;36.60
38488;DHT22;57384;51.986;4.458;2023-06-04T11:52:52;31.50;36.60
38488;DHT22;57384;51.986;4.458;2023-06-04T11:55:44;31.70;36.50
38488;DHT22;57384;51.986;4.458;2023-06-04T11:58:29;31.80;36.40
38488;DHT22;57384;51.986;4.458;2023-06-04T12:01:13;31.90;36.40
38488;DHT22;57384;51.986;4.458;2023-06-04T12:03:57;32.10;36.40
38488;DHT22;57384;51.986;4.458;2023-06-04T12:06:54;32.20;36.30
38488;DHT22;57384;51.986;4.458;2023-06-04T12:09:38;32.40;36.30
38488;DHT22;57384;51.986;4.458;2023-06-04T12:12:25;32.50;36.10
38488;DHT22;57384;51.986;4.458;2023-06-04T12:15:18;32.60;36.00
38488;DHT22;57384;51.986;4.458;2023-06-04T12:18:03;32.80;36.60
38488;DHT22;57384;51.986;4.458;2023-06-04T12:20:46;32.90;35.90
38488;DHT22;57384;51.986;4.458;2023-06-04T12:23:31;33.10;35.90
38488;DHT22;57384;51.986;4.458;2023-06-04T12:26:22;33.20;35.80
38488;DHT22;57384;51.986;4.458;2023-06-04T12:29:10;33.40;35.80
38488;DHT22;57384;51.986;4.458;2023-06-04T12:32:01;33.50;35.60
38488;DHT22;57384;51.986;4.458;2023-06-04T12:34:45;33.70;35.60
38488;DHT22;57384;51.986;4.458;2023-06-04T12:37:33;33.90;35.40
38488;DHT22;57384;51.986;4.458;2023-06-04T12:40:17;34.00;35.30
38488;DHT22;57384;51.986;4.458;2023-06-04T12:43:01;34.10;35.20
38488;DHT22;57384;51.986;4.458;2023-06-04T12:45:45;34.20;35.10
38488;DHT22;57384;51.986;4.458;2023-06-04T12:48:30;34.40;34.90
38488;DHT22;57384;51.986;4.458;2023-06-04T12:51:14;34.50;34.80
38488;DHT22;57384;51.986;4.458;2023-06-04T12:54:00;34.70;34.70
38488;DHT22;57384;51.986;4.458;2023-06-04T12:56:45;34.80;34.60
38488;DHT22;57384;51.986;4.458;2023-06-04T12:59:29;34.90;34.30
38488;DHT22;57384;51.986;4.458;2023-06-04T13:02:13;35.10;34.10
38488;DHT22;57384;51.986;4.458;2023-06-04T13:04:57;35.20;33.90
38488;DHT22;57384;51.986;4.458;2023-06-04T13:07:44;35.40;33.60
38488;DHT22;57384;51.986;4.458;2023-06-04T13:10:29;35.40;33.40
38488;DHT22;57384;51.986;4.458;2023-06-04T13:13:13;35.50;33.20
38488;DHT22;57384;51.986;4.458;2023-06-04T13:15:57;35.70;33.10
38488;DHT22;57384;51.986;4.458;2023-06-04T13:18:41;35.80;32.80
38488;DHT22;57384;51.986;4.458;2023-06-04T13:21:26;35.90;32.80
38488;DHT22;57384;51.986;4.458;2023-06-04T13:24:17;36.00;32.70
38488;DHT22;57384;51.986;4.458;2023-06-04T13:27:04;36.10;32.60
38488;DHT22;57384;51.986;4.458;2023-06-04T13:29:56;36.30;32.50
38488;DHT22;57384;51.986;4.458;2023-06-04T13:32:40;36.40;32.20
38488;DHT22;57384;51.986;4.458;2023-06-04T13:35:24;36.50;32.10
38488;DHT22;57384;51.986;4.458;2023-06-04T13:41:12;36.70;31.80
38488;DHT22;57384;51.986;4.458;2023-06-04T13:44:08;36.80;31.70
38488;DHT22;57384;51.986;4.458;2023-06-04T13:46:57;36.90;31.60
38488;DHT22;57384;51.986;4.458;2023-06-04T13:53:10;37.10;31.30
38488;DHT22;57384;51.986;4.458;2023-06-04T13:59:04;37.30;31.00
38488;DHT22;57384;51.986;4.458;2023-06-04T14:02:00;37.40;30.90
38488;DHT22;57384;51.986;4.458;2023-06-04T14:10:54;37.60;30.80
38488;DHT22;57384;51.986;4.458;2023-06-04T14:13:38;37.60;30.50
38488;DHT22;57384;51.986;4.458;2023-06-04T14:29:08;37.60;30.00
38488;DHT22;57384;51.986;4.458;2023-06-04T14:32:00;37.60;30.00
38488;DHT22;57384;51.986;4.458;2023-06-04T14:40:54;37.60;30.00
38488;DHT22;57384;51.986;4.458;2023-06-04T14:43:38;37.50;29.90
38488;DHT22;57384;51.986;4.458;2023-06-04T14:46:23;37.50;29.90
38488;DHT22;57384;51.986;4.458;2023-06-04T14:49:07;37.50;29.90
38488;DHT22;57384;51.986;4.458;2023-06-04T14:51:51;37.50;29.90
38488;DHT22;57384;51.986;4.458;2023-06-04T14:54:36;37.40;29.90
38488;DHT22;57384;51.986;4.458;2023-06-04T14:57:20;37.40;30.00
38488;DHT22;57384;51.986;4.458;2023-06-04T15:00:05;37.30;30.00
38488;DHT22;57384;51.986;4.458;2023-06-04T15:02:51;37.20;30.00
38488;DHT22;57384;51.986;4.458;2023-06-04T15:05:38;37.10;30.00
38488;DHT22;57384;51.986;4.458;2023-06-04T15:08:25;37.10;29.90
38488;DHT22;57384;51.986;4.458;2023-06-04T15:11:10;37.00;30.00
38488;DHT22;57384;51.986;4.458;2023-06-04T15:13:54;36.90;30.00
38488;DHT22;57384;51.986;4.458;2023-06-04T15:16:38;36.80;30.00
38488;DHT22;57384;51.986;4.458;2023-06-04T15:19:22;36.60;30.10
38488;DHT22;57384;51.986;4.458;2023-06-04T15:22:07;36.40;30.20
38488;DHT22;57384;51.986;4.458;2023-06-04T15:24:51;36.20;30.40
38488;DHT22;57384;51.986;4.458;2023-06-04T15:27:38;36.00;30.50
38488;DHT22;57384;51.986;4.458;2023-06-04T15:30:22;35.80;30.60
38488;DHT22;57384;51.986;4.458;2023-06-04T15:33:06;35.60;30.70
38488;DHT22;57384;51.986;4.458;2023-06-04T15:35:50;35.40;30.80
38488;DHT22;57384;51.986;4.458;2023-06-04T15:38:38;35.30;30.90
38488;DHT22;57384;51.986;4.458;2023-06-04T15:41:22;35.10;30.90
38488;DHT22;57384;51.986;4.458;2023-06-04T15:44:06;35.00;30.90
38488;DHT22;57384;51.986;4.458;2023-06-04T15:46:50;35.00;30.90
38488;DHT22;57384;51.986;4.458;2023-06-04T15:49:41;34.90;30.80
38488;DHT22;57384;51.986;4.458;2023-06-04T15:52:25;34.80;30.80
38488;DHT22;57384;51.986;4.458;2023-06-04T15:55:11;34.70;30.80
38488;DHT22;57384;51.986;4.458;2023-06-04T15:57:55;34.60;30.90
38488;DHT22;57384;51.986;4.458;2023-06-04T16:00:42;34.40;31.00
38488;DHT22;57384;51.986;4.458;2023-06-04T16:03:26;34.20;31.10
38488;DHT22;57384;51.986;4.458;2023-06-04T16:06:11;34.00;31.30
38488;DHT22;57384;51.986;4.458;2023-06-04T16:08:55;33.80;31.40
38488;DHT22;57384;51.986;4.458;2023-06-04T16:11:43;33.60;31.60
38488;DHT22;57384;51.986;4.458;2023-06-04T16:14:27;33.30;31.70
38488;DHT22;57384;51.986;4.458;2023-06-04T16:17:11;33.10;31.90
38488;DHT22;57384;51.986;4.458;2023-06-04T16:19:55;32.90;32.00
38488;DHT22;57384;51.986;4.458;2023-06-04T16:22:39;32.60;32.10
38488;DHT22;57384;51.986;4.458;2023-06-04T16:25:24;32.40;32.30
38488;DHT22;57384;51.986;4.458;2023-06-04T16:28:08;32.20;32.50
38488;DHT22;57384;51.986;4.458;2023-06-04T16:30:52;32.00;32.60
38488;DHT22;57384;51.986;4.458;2023-06-04T16:33:37;31.80;32.70
38488;DHT22;57384;51.986;4.458;2023-06-04T16:36:21;31.60;32.80
38488;DHT22;57384;51.986;4.458;2023-06-04T16:39:05;31.40;33.00
38488;DHT22;57384;51.986;4.458;2023-06-04T16:41:49;31.20;33.10
38488;DHT22;57384;51.986;4.458;2023-06-04T16:44:34;31.00;33.30
38488;DHT22;57384;51.986;4.458;2023-06-04T16:47:18;30.80;33.40
38488;DHT22;57384;51.986;4.458;2023-06-04T16:50:03;30.60;33.50
38488;DHT22;57384;51.986;4.458;2023-06-04T16:52:53;30.40;33.60
38488;DHT22;57384;51.986;4.458;2023-06-04T16:55:38;30.20;33.70
38488;DHT22;57384;51.986;4.458;2023-06-04T16:58:32;30.10;34.00
38488;DHT22;57384;51.986;4.458;2023-06-04T17:01:17;29.90;34.10
38488;DHT22;57384;51.986;4.458;2023-06-04T17:04:01;29.70;34.20
38488;DHT22;57384;51.986;4.458;2023-06-04T17:06:46;29.50;34.30
38488;DHT22;57384;51.986;4.458;2023-06-04T17:09:30;29.30;34.50
38488;DHT22;57384;51.986;4.458;2023-06-04T17:12:15;29.10;34.70
38488;DHT22;57384;51.986;4.458;2023-06-04T17:14:59;29.00;34.90
38488;DHT22;57384;51.986;4.458;2023-06-04T17:17:43;28.80;35.00
38488;DHT22;57384;51.986;4.458;2023-06-04T17:20:28;28.70;35.20
38488;DHT22;57384;51.986;4.458;2023-06-04T17:23:21;28.50;35.30
38488;DHT22;57384;51.986;4.458;2023-06-04T17:26:08;28.30;35.50
38488;DHT22;57384;51.986;4.458;2023-06-04T17:28:52;28.10;35.60
38488;DHT22;57384;51.986;4.458;2023-06-04T17:31:37;28.00;35.90
38488;DHT22;57384;51.986;4.458;2023-06-04T17:34:22;27.80;35.90
38488;DHT22;57384;51.986;4.458;2023-06-04T17:37:06;27.70;36.10
38488;DHT22;57384;51.986;4.458;2023-06-04T17:39:51;27.60;36.20
38488;DHT22;57384;51.986;4.458;2023-06-04T17:42:38;27.40;36.40
38488;DHT22;57384;51.986;4.458;2023-06-04T17:45:22;27.20;36.50
38488;DHT22;57384;51.986;4.458;2023-06-04T17:48:07;27.10;36.60
38488;DHT22;57384;51.986;4.458;2023-06-04T17:50:51;27.00;36.80
38488;DHT22;57384;51.986;4.458;2023-06-04T17:53:38;26.80;36.90
38488;DHT22;57384;51.986;4.458;2023-06-04T17:56:22;26.70;37.10
38488;DHT22;57384;51.986;4.458;2023-06-04T17:59:07;26.50;37.10
38488;DHT22;57384;51.986;4.458;2023-06-04T18:01:51;26.40;37.30
38488;DHT22;57384;51.986;4.458;2023-06-04T18:04:35;26.30;37.50
38488;DHT22;57384;51.986;4.458;2023-06-04T18:07:20;26.10;37.50
38488;DHT22;57384;51.986;4.458;2023-06-04T18:10:05;26.00;37.70
38488;DHT22;57384;51.986;4.458;2023-06-04T18:12:56;25.80;37.70
38488;DHT22;57384;51.986;4.458;2023-06-04T18:18:58;25.50;37.90
38488;DHT22;57384;51.986;4.458;2023-06-04T18:21:42;25.40;38.00
38488;DHT22;57384;51.986;4.458;2023-06-04T18:24:27;25.10;38.00
38488;DHT22;57384;51.986;4.458;2023-06-04T18:27:11;25.00;38.10
38488;DHT22;57384;51.986;4.458;2023-06-04T18:29:55;24.90;38.30
38488;DHT22;57384;51.986;4.458;2023-06-04T18:32:39;24.80;38.40
38488;DHT22;57384;51.986;4.458;2023-06-04T18:35:29;24.70;38.50
38488;DHT22;57384;51.986;4.458;2023-06-04T18:38:13;24.60;38.50
38488;DHT22;57384;51.986;4.458;2023-06-04T18:41:04;24.40;39.20